sensor_id;sensor_type;location;lat;lon;timestamp;P1;durP1;ratioP1;P2;durP2;ratioP2
3549;SDS011;45572;48.804;8.330;2023-09-08T00:00:04;7.67;;;6.80;;
3549;SDS011;45572;48.804;8.330;2023-09-08T00:02:33;10.07;;;7.23;;
3549;SDS011;45572;48.804;8.330;2023-09-08T00:05:01;13.93;;;7.50;;
3549;SDS011;45572;48.804;8.330;2023-09-08T00:07:29;9.73;;;7.80;;
3549;SDS011;45572;48.804;8.330;2023-09-08T00:09:58;7.43;;;6.63;;
3549;SDS011;45572;48.804;8.330;2023-09-08T00:12:26;8.70;;;6.67;;
3549;SDS011;45572;48.804;8.330;2023-09-08T00:14:53;8.13;;;6.07;;
3549;SDS011;45572;48.804;8.330;2023-09-08T00:17:21;8.00;;;7.20;;
3549;SDS011;45572;48.804;8.330;2023-09-08T00:19:49;10.33;;;6.80;;
3549;SDS011;45572;48.804;8.330;2023-09-08T00:22:17;9.07;;;6.80;;
3549;SDS011;45572;48.804;8.330;2023-09-08T00:24:45;8.37;;;6.40;;
3549;SDS011;45572;48.804;8.330;2023-09-08T00:27:14;9.40;;;5.90;;
3549;SDS011;45572;48.804;8.330;2023-09-08T00:29:42;8.17;;;6.77;;
3549;SDS011;45572;48.804;8.330;2023-09-08T00:32:10;10.00;;;7.50;;
3549;SDS011;45572;48.804;8.330;2023-09-08T00:34:40;9.70;;;6.70;;
3549;SDS011;45572;48.804;8.330;2023-09-08T00:37:08;8.07;;;6.50;;
3549;SDS011;45572;48.804;8.330;2023-09-08T00:39:36;7.07;;;6.00;;
3549;SDS011;45572;48.804;8.330;2023-09-08T00:42:04;9.03;;;6.40;;
3549;SDS011;45572;48.804;8.330;2023-09-08T00:44:35;11.50;;;7.10;;
3549;SDS011;45572;48.804;8.330;2023-09-08T00:47:02;8.13;;;7.00;;
3549;SDS011;45572;48.804;8.330;2023-09-08T00:49:31;12.13;;;7.93;;
3549;SDS011;45572;48.804;8.330;2023-09-08T00:51:59;10.37;;;7.00;;
3549;SDS011;45572;48.804;8.330;2023-09-08T00:54:27;8.97;;;6.80;;
3549;SDS011;45572;48.804;8.330;2023-09-08T00:56:56;7.33;;;6.07;;
3549;SDS011;45572;48.804;8.330;2023-09-08T00:59:25;9.30;;;6.97;;
3549;SDS011;45572;48.804;8.330;2023-09-08T01:01:54;7.87;;;6.47;;
3549;SDS011;45572;48.804;8.330;2023-09-08T01:04:22;9.63;;;7.43;;
3549;SDS011;45572;48.804;8.330;2023-09-08T01:06:50;10.50;;;8.18;;
3549;SDS011;45572;48.804;8.330;2023-09-08T01:09:18;10.85;;;7.43;;
3549;SDS011;45572;48.804;8.330;2023-09-08T01:11:46;9.13;;;7.73;;
3549;SDS011;45572;48.804;8.330;2023-09-08T01:14:17;9.50;;;6.65;;
3549;SDS011;45572;48.804;8.330;2023-09-08T01:16:45;8.10;;;7.10;;
3549;SDS011;45572;48.804;8.330;2023-09-08T01:19:14;10.50;;;8.43;;
3549;SDS011;45572;48.804;8.330;2023-09-08T01:21:51;12.07;;;6.93;;
3549;SDS011;45572;48.804;8.330;2023-09-08T01:24:30;11.53;;;8.17;;
3549;SDS011;45572;48.804;8.330;2023-09-08T01:27:13;7.93;;;6.82;;
3549;SDS011;45572;48.804;8.330;2023-09-08T01:29:43;11.50;;;7.30;;
3549;SDS011;45572;48.804;8.330;2023-09-08T01:32:12;11.52;;;7.68;;
3549;SDS011;45572;48.804;8.330;2023-09-08T01:34:40;11.10;;;8.00;;
3549;SDS011;45572;48.804;8.330;2023-09-08T01:37:08;9.57;;;7.15;;
3549;SDS011;45572;48.804;8.330;2023-09-08T01:39:36;8.23;;;6.55;;
3549;SDS011;45572;48.804;8.330;2023-09-08T01:42:04;10.38;;;6.93;;
3549;SDS011;45572;48.804;8.330;2023-09-08T01:44:33;9.02;;;7.57;;
3549;SDS011;45572;48.804;8.330;2023-09-08T01:47:02;12.70;;;8.18;;
3549;SDS011;45572;48.804;8.330;2023-09-08T01:49:30;9.57;;;6.73;;
3549;SDS011;45572;48.804;8.330;2023-09-08T01:51:58;13.27;;;6.93;;
3549;SDS011;45572;48.804;8.330;2023-09-08T01:54:25;8.88;;;6.50;;
3549;SDS011;45572;48.804;8.330;2023-09-08T01:56:54;10.77;;;7.68;;
3549;SDS011;45572;48.804;8.330;2023-09-08T01:59:21;10.30;;;7.30;;
3549;SDS011;45572;48.804;8.330;2023-09-08T02:01:50;10.68;;;7.32;;
3549;SDS011;45572;48.804;8.330;2023-09-08T02:04:18;8.30;;;7.23;;
3549;SDS011;45572;48.804;8.330;2023-09-08T02:06:46;9.15;;;7.30;;
3549;SDS011;45572;48.804;8.330;2023-09-08T02:09:14;10.50;;;7.30;;
3549;SDS011;45572;48.804;8.330;2023-09-08T02:11:42;10.23;;;7.20;;
3549;SDS011;45572;48.804;8.330;2023-09-08T02:14:10;9.13;;;7.53;;
3549;SDS011;45572;48.804;8.330;2023-09-08T02:16:37;10.90;;;8.00;;
3549;SDS011;45572;48.804;8.330;2023-09-08T02:19:07;12.82;;;7.95;;
3549;SDS011;45572;48.804;8.330;2023-09-08T02:21:36;8.77;;;7.00;;
3549;SDS011;45572;48.804;8.330;2023-09-08T02:24:04;8.83;;;7.53;;
3549;SDS011;45572;48.804;8.330;2023-09-08T02:26:32;8.90;;;6.90;;
3549;SDS011;45572;48.804;8.330;2023-09-08T02:29:00;8.48;;;6.95;;
3549;SDS011;45572;48.804;8.330;2023-09-08T02:31:28;9.10;;;7.32;;
3549;SDS011;45572;48.804;8.330;2023-09-08T02:33:56;9.55;;;7.70;;
3549;SDS011;45572;48.804;8.330;2023-09-08T02:36:25;10.68;;;7.13;;
3549;SDS011;45572;48.804;8.330;2023-09-08T02:38:55;7.88;;;6.93;;
3549;SDS011;45572;48.804;8.330;2023-09-08T02:41:24;15.38;;;7.35;;
3549;SDS011;45572;48.804;8.330;2023-09-08T02:43:52;10.45;;;7.22;;
3549;SDS011;45572;48.804;8.330;2023-09-08T02:46:20;10.15;;;7.55;;
3549;SDS011;45572;48.804;8.330;2023-09-08T02:48:47;8.80;;;7.30;;
3549;SDS011;45572;48.804;8.330;2023-09-08T02:51:16;10.52;;;7.80;;
3549;SDS011;45572;48.804;8.330;2023-09-08T02:53:45;10.90;;;8.35;;
3549;SDS011;45572;48.804;8.330;2023-09-08T02:56:13;9.68;;;8.25;;
3549;SDS011;45572;48.804;8.330;2023-09-08T02:58:41;9.75;;;7.72;;
3549;SDS011;45572;48.804;8.330;2023-09-08T03:01:09;11.40;;;8.43;;
3549;SDS011;45572;48.804;8.330;2023-09-08T03:03:40;9.73;;;7.47;;
3549;SDS011;45572;48.804;8.330;2023-09-08T03:06:09;10.05;;;7.43;;
3549;SDS011;45572;48.804;8.330;2023-09-08T03:08:39;12.60;;;7.63;;
3549;SDS011;45572;48.804;8.330;2023-09-08T03:11:08;10.53;;;6.77;;
3549;SDS011;45572;48.804;8.330;2023-09-08T03:13:36;8.43;;;7.35;;
3549;SDS011;45572;48.804;8.330;2023-09-08T03:16:04;9.27;;;7.32;;
3549;SDS011;45572;48.804;8.330;2023-09-08T03:18:32;9.02;;;7.47;;
3549;SDS011;45572;48.804;8.330;2023-09-08T03:21:03;8.40;;;6.68;;
3549;SDS011;45572;48.804;8.330;2023-09-08T03:23:37;10.52;;;7.57;;
3549;SDS011;45572;48.804;8.330;2023-09-08T03:26:05;8.40;;;7.15;;
3549;SDS011;45572;48.804;8.330;2023-09-08T03:28:34;9.65;;;7.57;;
3549;SDS011;45572;48.804;8.330;2023-09-08T03:31:03;8.70;;;7.25;;
3549;SDS011;45572;48.804;8.330;2023-09-08T03:33:33;9.48;;;7.65;;
3549;SDS011;45572;48.804;8.330;2023-09-08T03:36:03;9.63;;;7.32;;
3549;SDS011;45572;48.804;8.330;2023-09-08T03:38:33;11.25;;;7.28;;
3549;SDS011;45572;48.804;8.330;2023-09-08T03:41:03;11.10;;;8.65;;
3549;SDS011;45572;48.804;8.330;2023-09-08T03:43:31;9.57;;;8.00;;
3549;SDS011;45572;48.804;8.330;2023-09-08T03:46:01;12.45;;;7.80;;
3549;SDS011;45572;48.804;8.330;2023-09-08T03:48:29;9.35;;;7.03;;
3549;SDS011;45572;48.804;8.330;2023-09-08T03:50:57;9.45;;;7.45;;
3549;SDS011;45572;48.804;8.330;2023-09-08T03:53:26;10.55;;;8.18;;
3549;SDS011;45572;48.804;8.330;2023-09-08T03:55:54;11.00;;;8.32;;
3549;SDS011;45572;48.804;8.330;2023-09-08T03:58:22;8.93;;;6.50;;
3549;SDS011;45572;48.804;8.330;2023-09-08T04:00:50;9.02;;;6.65;;
3549;SDS011;45572;48.804;8.330;2023-09-08T04:03:19;11.77;;;7.70;;
3549;SDS011;45572;48.804;8.330;2023-09-08T04:05:47;10.27;;;8.40;;
3549;SDS011;45572;48.804;8.330;2023-09-08T04:08:15;12.13;;;8.68;;
3549;SDS011;45572;48.804;8.330;2023-09-08T04:10:42;11.45;;;8.35;;
3549;SDS011;45572;48.804;8.330;2023-09-08T04:13:10;12.00;;;7.80;;
3549;SDS011;45572;48.804;8.330;2023-09-08T04:15:38;12.40;;;8.55;;
3549;SDS011;45572;48.804;8.330;2023-09-08T04:18:06;15.23;;;9.48;;
3549;SDS011;45572;48.804;8.330;2023-09-08T04:20:35;12.32;;;8.05;;
3549;SDS011;45572;48.804;8.330;2023-09-08T04:23:03;12.10;;;7.80;;
3549;SDS011;45572;48.804;8.330;2023-09-08T04:25:31;10.70;;;7.93;;
3549;SDS011;45572;48.804;8.330;2023-09-08T04:27:59;9.73;;;7.38;;
3549;SDS011;45572;48.804;8.330;2023-09-08T04:30:27;10.13;;;8.20;;
3549;SDS011;45572;48.804;8.330;2023-09-08T04:32:55;10.98;;;7.95;;
3549;SDS011;45572;48.804;8.330;2023-09-08T04:35:23;9.27;;;8.20;;
3549;SDS011;45572;48.804;8.330;2023-09-08T04:37:52;11.57;;;8.43;;
3549;SDS011;45572;48.804;8.330;2023-09-08T04:40:20;10.60;;;8.15;;
3549;SDS011;45572;48.804;8.330;2023-09-08T04:42:47;8.90;;;7.78;;
3549;SDS011;45572;48.804;8.330;2023-09-08T04:45:15;14.50;;;9.77;;
3549;SDS011;45572;48.804;8.330;2023-09-08T04:47:44;11.75;;;8.57;;
3549;SDS011;45572;48.804;8.330;2023-09-08T04:50:14;10.85;;;8.55;;
3549;SDS011;45572;48.804;8.330;2023-09-08T04:52:43;10.93;;;7.95;;
3549;SDS011;45572;48.804;8.330;2023-09-08T04:55:13;10.57;;;8.35;;
3549;SDS011;45572;48.804;8.330;2023-09-08T04:57:41;9.23;;;7.32;;
3549;SDS011;45572;48.804;8.330;2023-09-08T05:00:09;11.77;;;8.50;;
3549;SDS011;45572;48.804;8.330;2023-09-08T05:02:38;11.70;;;7.97;;
3549;SDS011;45572;48.804;8.330;2023-09-08T05:05:06;13.85;;;8.52;;
3549;SDS011;45572;48.804;8.330;2023-09-08T05:07:35;12.45;;;9.52;;
3549;SDS011;45572;48.804;8.330;2023-09-08T05:10:03;11.00;;;7.32;;
3549;SDS011;45572;48.804;8.330;2023-09-08T05:12:35;11.65;;;8.90;;
3549;SDS011;45572;48.804;8.330;2023-09-08T05:15:03;12.15;;;8.27;;
3549;SDS011;45572;48.804;8.330;2023-09-08T05:17:38;9.52;;;7.75;;
3549;SDS011;45572;48.804;8.330;2023-09-08T05:20:07;11.52;;;8.48;;
3549;SDS011;45572;48.804;8.330;2023-09-08T05:22:35;12.13;;;9.00;;
3549;SDS011;45572;48.804;8.330;2023-09-08T05:25:05;17.00;;;8.45;;
3549;SDS011;45572;48.804;8.330;2023-09-08T05:27:33;11.05;;;8.40;;
3549;SDS011;45572;48.804;8.330;2023-09-08T05:30:03;10.00;;;7.65;;
3549;SDS011;45572;48.804;8.330;2023-09-08T05:32:33;13.60;;;8.48;;
3549;SDS011;45572;48.804;8.330;2023-09-08T05:35:02;9.32;;;8.13;;
3549;SDS011;45572;48.804;8.330;2023-09-08T05:37:30;11.15;;;7.70;;
3549;SDS011;45572;48.804;8.330;2023-09-08T05:39:58;9.35;;;7.53;;
3549;SDS011;45572;48.804;8.330;2023-09-08T05:42:26;12.07;;;8.35;;
3549;SDS011;45572;48.804;8.330;2023-09-08T05:44:55;10.00;;;7.55;;
3549;SDS011;45572;48.804;8.330;2023-09-08T05:47:23;10.43;;;7.65;;
3549;SDS011;45572;48.804;8.330;2023-09-08T05:49:52;9.20;;;8.05;;
3549;SDS011;45572;48.804;8.330;2023-09-08T05:52:20;11.90;;;8.18;;
3549;SDS011;45572;48.804;8.330;2023-09-08T05:54:48;16.48;;;8.25;;
3549;SDS011;45572;48.804;8.330;2023-09-08T05:57:16;13.70;;;7.77;;
3549;SDS011;45572;48.804;8.330;2023-09-08T05:59:44;9.30;;;6.70;;
3549;SDS011;45572;48.804;8.330;2023-09-08T06:02:13;8.30;;;7.03;;
3549;SDS011;45572;48.804;8.330;2023-09-08T06:04:42;8.07;;;6.40;;
3549;SDS011;45572;48.804;8.330;2023-09-08T06:07:11;12.93;;;7.20;;
3549;SDS011;45572;48.804;8.330;2023-09-08T06:09:40;9.17;;;7.07;;
3549;SDS011;45572;48.804;8.330;2023-09-08T06:12:08;9.60;;;7.23;;
3549;SDS011;45572;48.804;8.330;2023-09-08T06:14:36;7.97;;;7.17;;
3549;SDS011;45572;48.804;8.330;2023-09-08T06:17:03;11.70;;;6.63;;
3549;SDS011;45572;48.804;8.330;2023-09-08T06:19:33;9.10;;;6.10;;
3549;SDS011;45572;48.804;8.330;2023-09-08T06:22:00;6.73;;;5.80;;
3549;SDS011;45572;48.804;8.330;2023-09-08T06:24:28;7.77;;;6.17;;
3549;SDS011;45572;48.804;8.330;2023-09-08T06:26:56;8.80;;;5.90;;
3549;SDS011;45572;48.804;8.330;2023-09-08T06:29:24;8.00;;;4.93;;
3549;SDS011;45572;48.804;8.330;2023-09-08T06:31:52;5.73;;;5.03;;
3549;SDS011;45572;48.804;8.330;2023-09-08T06:34:20;5.43;;;4.80;;
3549;SDS011;45572;48.804;8.330;2023-09-08T06:36:50;6.80;;;5.50;;
3549;SDS011;45572;48.804;8.330;2023-09-08T06:39:18;5.97;;;4.47;;
3549;SDS011;45572;48.804;8.330;2023-09-08T06:41:46;6.33;;;5.43;;
3549;SDS011;45572;48.804;8.330;2023-09-08T06:44:16;8.07;;;5.30;;
3549;SDS011;45572;48.804;8.330;2023-09-08T06:46:44;6.30;;;4.53;;
3549;SDS011;45572;48.804;8.330;2023-09-08T06:49:13;6.67;;;5.00;;
3549;SDS011;45572;48.804;8.330;2023-09-08T06:51:41;4.97;;;4.50;;
3549;SDS011;45572;48.804;8.330;2023-09-08T06:54:10;6.70;;;5.70;;
3549;SDS011;45572;48.804;8.330;2023-09-08T06:56:41;4.87;;;4.47;;
3549;SDS011;45572;48.804;8.330;2023-09-08T06:59:10;5.67;;;5.13;;
3549;SDS011;45572;48.804;8.330;2023-09-08T07:01:38;5.07;;;4.57;;
3549;SDS011;45572;48.804;8.330;2023-09-08T07:04:07;6.27;;;4.77;;
3549;SDS011;45572;48.804;8.330;2023-09-08T07:06:35;10.13;;;5.13;;
3549;SDS011;45572;48.804;8.330;2023-09-08T07:09:04;6.00;;;5.40;;
3549;SDS011;45572;48.804;8.330;2023-09-08T07:11:33;5.70;;;5.10;;
3549;SDS011;45572;48.804;8.330;2023-09-08T07:14:01;5.30;;;4.80;;
3549;SDS011;45572;48.804;8.330;2023-09-08T07:16:31;11.93;;;5.40;;
3549;SDS011;45572;48.804;8.330;2023-09-08T07:19:00;5.90;;;4.93;;
3549;SDS011;45572;48.804;8.330;2023-09-08T07:21:28;5.23;;;4.73;;
3549;SDS011;45572;48.804;8.330;2023-09-08T07:23:57;4.87;;;4.37;;
3549;SDS011;45572;48.804;8.330;2023-09-08T07:26:26;8.07;;;4.80;;
3549;SDS011;45572;48.804;8.330;2023-09-08T07:28:55;5.90;;;5.00;;
3549;SDS011;45572;48.804;8.330;2023-09-08T07:31:23;5.60;;;5.10;;
3549;SDS011;45572;48.804;8.330;2023-09-08T07:33:51;5.43;;;4.93;;
3549;SDS011;45572;48.804;8.330;2023-09-08T07:36:20;7.70;;;5.20;;
3549;SDS011;45572;48.804;8.330;2023-09-08T07:38:52;5.57;;;5.00;;
3549;SDS011;45572;48.804;8.330;2023-09-08T07:41:19;5.30;;;4.50;;
3549;SDS011;45572;48.804;8.330;2023-09-08T07:43:48;6.10;;;5.00;;
3549;SDS011;45572;48.804;8.330;2023-09-08T07:46:22;5.40;;;4.90;;
3549;SDS011;45572;48.804;8.330;2023-09-08T07:48:50;5.27;;;4.77;;
3549;SDS011;45572;48.804;8.330;2023-09-08T07:51:19;5.73;;;4.70;;
3549;SDS011;45572;48.804;8.330;2023-09-08T07:53:48;7.13;;;5.07;;
3549;SDS011;45572;48.804;8.330;2023-09-08T07:56:18;6.33;;;5.57;;
3549;SDS011;45572;48.804;8.330;2023-09-08T07:58:48;6.03;;;5.37;;
3549;SDS011;45572;48.804;8.330;2023-09-08T08:01:26;4.93;;;4.50;;
3549;SDS011;45572;48.804;8.330;2023-09-08T08:03:58;6.77;;;4.70;;
3549;SDS011;45572;48.804;8.330;2023-09-08T08:06:29;8.27;;;4.57;;
3549;SDS011;45572;48.804;8.330;2023-09-08T08:08:56;4.37;;;3.90;;
3549;SDS011;45572;48.804;8.330;2023-09-08T08:11:28;5.10;;;4.60;;
3549;SDS011;45572;48.804;8.330;2023-09-08T08:13:55;5.77;;;4.40;;
3549;SDS011;45572;48.804;8.330;2023-09-08T08:16:23;7.60;;;4.80;;
3549;SDS011;45572;48.804;8.330;2023-09-08T08:18:53;5.30;;;4.00;;
3549;SDS011;45572;48.804;8.330;2023-09-08T08:21:21;4.30;;;3.90;;
3549;SDS011;45572;48.804;8.330;2023-09-08T08:23:50;4.40;;;4.00;;
3549;SDS011;45572;48.804;8.330;2023-09-08T08:26:18;4.23;;;3.83;;
3549;SDS011;45572;48.804;8.330;2023-09-08T08:28:46;4.93;;;4.53;;
3549;SDS011;45572;48.804;8.330;2023-09-08T08:31:14;6.00;;;5.40;;
3549;SDS011;45572;48.804;8.330;2023-09-08T08:33:43;5.13;;;4.00;;
3549;SDS011;45572;48.804;8.330;2023-09-08T08:36:11;5.50;;;5.00;;
3549;SDS011;45572;48.804;8.330;2023-09-08T08:38:39;5.23;;;4.83;;
3549;SDS011;45572;48.804;8.330;2023-09-08T08:41:06;4.43;;;4.03;;
3549;SDS011;45572;48.804;8.330;2023-09-08T08:43:34;5.13;;;4.60;;
3549;SDS011;45572;48.804;8.330;2023-09-08T08:46:02;5.07;;;4.13;;
3549;SDS011;45572;48.804;8.330;2023-09-08T08:48:31;5.70;;;4.43;;
3549;SDS011;45572;48.804;8.330;2023-09-08T08:51:02;4.67;;;4.20;;
3549;SDS011;45572;48.804;8.330;2023-09-08T08:53:31;4.73;;;4.27;;
3549;SDS011;45572;48.804;8.330;2023-09-08T08:56:00;4.10;;;3.80;;
3549;SDS011;45572;48.804;8.330;2023-09-08T08:58:29;13.13;;;5.43;;
3549;SDS011;45572;48.804;8.330;2023-09-08T09:00:58;4.40;;;4.10;;
3549;SDS011;45572;48.804;8.330;2023-09-08T09:03:29;4.90;;;4.50;;
3549;SDS011;45572;48.804;8.330;2023-09-08T09:06:02;4.60;;;4.20;;
3549;SDS011;45572;48.804;8.330;2023-09-08T09:08:32;8.23;;;3.73;;
3549;SDS011;45572;48.804;8.330;2023-09-08T09:11:01;4.60;;;4.20;;
3549;SDS011;45572;48.804;8.330;2023-09-08T09:13:29;4.60;;;4.20;;
3549;SDS011;45572;48.804;8.330;2023-09-08T09:15:58;5.00;;;4.50;;
3549;SDS011;45572;48.804;8.330;2023-09-08T09:18:27;4.23;;;3.93;;
3549;SDS011;45572;48.804;8.330;2023-09-08T09:20:58;3.90;;;3.60;;
3549;SDS011;45572;48.804;8.330;2023-09-08T09:23:29;4.33;;;3.93;;
3549;SDS011;45572;48.804;8.330;2023-09-08T09:25:58;4.43;;;4.13;;
3549;SDS011;45572;48.804;8.330;2023-09-08T09:28:28;4.30;;;3.90;;
3549;SDS011;45572;48.804;8.330;2023-09-08T09:30:57;4.10;;;3.80;;
3549;SDS011;45572;48.804;8.330;2023-09-08T09:33:26;3.70;;;3.40;;
3549;SDS011;45572;48.804;8.330;2023-09-08T09:35:56;4.80;;;4.10;;
3549;SDS011;45572;48.804;8.330;2023-09-08T09:38:25;3.83;;;3.20;;
3549;SDS011;45572;48.804;8.330;2023-09-08T09:40:55;6.23;;;3.83;;
3549;SDS011;45572;48.804;8.330;2023-09-08T09:43:23;4.30;;;3.90;;
3549;SDS011;45572;48.804;8.330;2023-09-08T09:45:51;3.80;;;3.50;;
3549;SDS011;45572;48.804;8.330;2023-09-08T09:48:21;8.87;;;4.67;;
3549;SDS011;45572;48.804;8.330;2023-09-08T09:50:49;5.60;;;3.87;;
3549;SDS011;45572;48.804;8.330;2023-09-08T09:53:17;5.87;;;4.27;;
3549;SDS011;45572;48.804;8.330;2023-09-08T09:55:45;4.53;;;3.57;;
3549;SDS011;45572;48.804;8.330;2023-09-08T09:58:14;3.97;;;3.60;;
3549;SDS011;45572;48.804;8.330;2023-09-08T10:00:43;4.00;;;3.70;;
3549;SDS011;45572;48.804;8.330;2023-09-08T10:03:16;4.60;;;3.70;;
3549;SDS011;45572;48.804;8.330;2023-09-08T10:05:45;4.43;;;4.03;;
3549;SDS011;45572;48.804;8.330;2023-09-08T10:08:15;4.07;;;3.77;;
3549;SDS011;45572;48.804;8.330;2023-09-08T10:10:44;4.60;;;3.87;;
3549;SDS011;45572;48.804;8.330;2023-09-08T10:13:16;4.83;;;4.27;;
3549;SDS011;45572;48.804;8.330;2023-09-08T10:15:50;3.90;;;3.17;;
3549;SDS011;45572;48.804;8.330;2023-09-08T10:18:19;4.63;;;4.33;;
3549;SDS011;45572;48.804;8.330;2023-09-08T10:20:48;4.57;;;4.23;;
3549;SDS011;45572;48.804;8.330;2023-09-08T10:23:20;6.10;;;4.30;;
3549;SDS011;45572;48.804;8.330;2023-09-08T10:25:52;4.33;;;3.93;;
3549;SDS011;45572;48.804;8.330;2023-09-08T10:28:27;5.73;;;3.43;;
3549;SDS011;45572;48.804;8.330;2023-09-08T10:30:58;4.30;;;3.90;;
3549;SDS011;45572;48.804;8.330;2023-09-08T10:33:27;4.00;;;3.70;;
3549;SDS011;45572;48.804;8.330;2023-09-08T10:35:56;4.68;;;4.28;;
3549;SDS011;45572;48.804;8.330;2023-09-08T10:38:26;5.30;;;4.40;;
3549;SDS011;45572;48.804;8.330;2023-09-08T10:43:58;4.53;;;4.13;;
3549;SDS011;45572;48.804;8.330;2023-09-08T10:46:31;4.85;;;4.45;;
3549;SDS011;45572;48.804;8.330;2023-09-08T10:49:01;4.30;;;3.90;;
3549;SDS011;45572;48.804;8.330;2023-09-08T10:51:31;9.80;;;4.83;;
3549;SDS011;45572;48.804;8.330;2023-09-08T10:54:01;6.03;;;4.23;;
3549;SDS011;45572;48.804;8.330;2023-09-08T10:56:46;6.80;;;4.10;;
3549;SDS011;45572;48.804;8.330;2023-09-08T10:59:17;5.17;;;4.67;;
3549;SDS011;45572;48.804;8.330;2023-09-08T11:01:46;5.43;;;4.50;;
3549;SDS011;45572;48.804;8.330;2023-09-08T11:04:15;3.90;;;3.60;;
3549;SDS011;45572;48.804;8.330;2023-09-08T11:06:45;7.00;;;5.17;;
3549;SDS011;45572;48.804;8.330;2023-09-08T11:09:13;5.17;;;4.77;;
3549;SDS011;45572;48.804;8.330;2023-09-08T11:11:43;4.30;;;3.90;;
3549;SDS011;45572;48.804;8.330;2023-09-08T11:14:12;4.43;;;4.03;;
3549;SDS011;45572;48.804;8.330;2023-09-08T11:16:42;4.47;;;4.10;;
3549;SDS011;45572;48.804;8.330;2023-09-08T11:19:11;4.80;;;3.67;;
3549;SDS011;45572;48.804;8.330;2023-09-08T11:21:39;4.97;;;4.47;;
3549;SDS011;45572;48.804;8.330;2023-09-08T11:24:08;5.70;;;4.00;;
3549;SDS011;45572;48.804;8.330;2023-09-08T11:26:36;4.33;;;3.93;;
3549;SDS011;45572;48.804;8.330;2023-09-08T11:29:04;8.03;;;3.77;;
3549;SDS011;45572;48.804;8.330;2023-09-08T11:31:32;4.27;;;3.97;;
3549;SDS011;45572;48.804;8.330;2023-09-08T11:34:03;4.30;;;4.00;;
3549;SDS011;45572;48.804;8.330;2023-09-08T11:36:32;4.57;;;4.17;;
3549;SDS011;45572;48.804;8.330;2023-09-08T11:39:03;4.67;;;4.27;;
3549;SDS011;45572;48.804;8.330;2023-09-08T11:41:32;4.80;;;4.40;;
3549;SDS011;45572;48.804;8.330;2023-09-08T11:44:00;4.60;;;3.97;;
3549;SDS011;45572;48.804;8.330;2023-09-08T11:46:28;4.47;;;4.03;;
3549;SDS011;45572;48.804;8.330;2023-09-08T11:48:56;4.97;;;4.50;;
3549;SDS011;45572;48.804;8.330;2023-09-08T11:51:27;4.33;;;3.93;;
3549;SDS011;45572;48.804;8.330;2023-09-08T11:53:55;4.13;;;3.73;;
3549;SDS011;45572;48.804;8.330;2023-09-08T11:56:23;5.40;;;4.07;;
3549;SDS011;45572;48.804;8.330;2023-09-08T11:58:51;4.63;;;4.23;;
3549;SDS011;45572;48.804;8.330;2023-09-08T12:01:20;5.40;;;4.90;;
3549;SDS011;45572;48.804;8.330;2023-09-08T12:03:51;7.33;;;4.73;;
3549;SDS011;45572;48.804;8.330;2023-09-08T12:06:23;4.90;;;4.50;;
3549;SDS011;45572;48.804;8.330;2023-09-08T12:08:53;5.00;;;4.30;;
3549;SDS011;45572;48.804;8.330;2023-09-08T12:11:20;5.77;;;4.50;;
3549;SDS011;45572;48.804;8.330;2023-09-08T12:13:48;13.40;;;5.70;;
3549;SDS011;45572;48.804;8.330;2023-09-08T12:16:17;6.60;;;6.00;;
3549;SDS011;45572;48.804;8.330;2023-09-08T12:18:46;6.33;;;5.73;;
3549;SDS011;45572;48.804;8.330;2023-09-08T12:21:15;6.93;;;6.23;;
3549;SDS011;45572;48.804;8.330;2023-09-08T12:23:46;9.40;;;6.33;;
3549;SDS011;45572;48.804;8.330;2023-09-08T12:26:17;7.10;;;6.20;;
3549;SDS011;45572;48.804;8.330;2023-09-08T12:28:46;7.87;;;6.90;;
3549;SDS011;45572;48.804;8.330;2023-09-08T12:31:15;9.27;;;6.97;;
3549;SDS011;45572;48.804;8.330;2023-09-08T12:33:45;7.13;;;5.93;;
3549;SDS011;45572;48.804;8.330;2023-09-08T12:36:16;7.23;;;6.50;;
3549;SDS011;45572;48.804;8.330;2023-09-08T12:38:47;11.00;;;6.50;;
3549;SDS011;45572;48.804;8.330;2023-09-08T12:41:17;14.33;;;6.27;;
3549;SDS011;45572;48.804;8.330;2023-09-08T12:43:46;15.93;;;7.93;;
3549;SDS011;45572;48.804;8.330;2023-09-08T12:46:16;8.23;;;6.30;;
3549;SDS011;45572;48.804;8.330;2023-09-08T12:48:44;8.03;;;6.10;;
3549;SDS011;45572;48.804;8.330;2023-09-08T12:51:12;7.90;;;6.33;;
3549;SDS011;45572;48.804;8.330;2023-09-08T12:53:40;7.47;;;6.77;;
3549;SDS011;45572;48.804;8.330;2023-09-08T12:56:08;9.50;;;6.97;;
3549;SDS011;45572;48.804;8.330;2023-09-08T12:58:37;7.67;;;6.33;;
3549;SDS011;45572;48.804;8.330;2023-09-08T13:01:05;9.07;;;6.50;;
3549;SDS011;45572;48.804;8.330;2023-09-08T13:03:33;8.07;;;6.20;;
3549;SDS011;45572;48.804;8.330;2023-09-08T13:06:02;7.90;;;6.50;;
3549;SDS011;45572;48.804;8.330;2023-09-08T13:08:32;9.17;;;6.93;;
3549;SDS011;45572;48.804;8.330;2023-09-08T13:11:00;7.83;;;6.53;;
3549;SDS011;45572;48.804;8.330;2023-09-08T13:13:29;9.00;;;7.27;;
3549;SDS011;45572;48.804;8.330;2023-09-08T13:15:59;10.50;;;7.20;;
3549;SDS011;45572;48.804;8.330;2023-09-08T13:18:27;8.33;;;6.87;;
3549;SDS011;45572;48.804;8.330;2023-09-08T13:20:57;7.60;;;6.07;;
3549;SDS011;45572;48.804;8.330;2023-09-08T13:23:25;10.77;;;6.33;;
3549;SDS011;45572;48.804;8.330;2023-09-08T13:25:52;8.40;;;6.83;;
3549;SDS011;45572;48.804;8.330;2023-09-08T13:28:20;8.53;;;6.07;;
3549;SDS011;45572;48.804;8.330;2023-09-08T13:30:48;8.40;;;6.53;;
3549;SDS011;45572;48.804;8.330;2023-09-08T13:33:17;7.53;;;6.47;;
3549;SDS011;45572;48.804;8.330;2023-09-08T13:35:46;8.90;;;6.90;;
3549;SDS011;45572;48.804;8.330;2023-09-08T13:38:17;7.13;;;6.23;;
3549;SDS011;45572;48.804;8.330;2023-09-08T13:40:45;6.83;;;5.77;;
3549;SDS011;45572;48.804;8.330;2023-09-08T13:43:12;7.67;;;6.97;;
3549;SDS011;45572;48.804;8.330;2023-09-08T13:45:40;7.50;;;6.50;;
3549;SDS011;45572;48.804;8.330;2023-09-08T13:48:09;6.87;;;6.17;;
3549;SDS011;45572;48.804;8.330;2023-09-08T13:50:39;13.63;;;6.73;;
3549;SDS011;45572;48.804;8.330;2023-09-08T13:53:09;8.33;;;6.87;;
3549;SDS011;45572;48.804;8.330;2023-09-08T13:55:40;7.50;;;6.60;;
3549;SDS011;45572;48.804;8.330;2023-09-08T13:58:10;8.83;;;6.43;;
3549;SDS011;45572;48.804;8.330;2023-09-08T14:00:39;13.93;;;7.57;;
3549;SDS011;45572;48.804;8.330;2023-09-08T14:03:13;7.27;;;6.53;;
3549;SDS011;45572;48.804;8.330;2023-09-08T14:05:49;9.87;;;6.33;;
3549;SDS011;45572;48.804;8.330;2023-09-08T14:08:20;6.83;;;6.13;;
3549;SDS011;45572;48.804;8.330;2023-09-08T14:10:55;7.07;;;6.40;;
3549;SDS011;45572;48.804;8.330;2023-09-08T14:13:25;7.50;;;5.70;;
3549;SDS011;45572;48.804;8.330;2023-09-08T14:15:53;8.90;;;6.47;;
3549;SDS011;45572;48.804;8.330;2023-09-08T14:18:21;7.10;;;6.13;;
3549;SDS011;45572;48.804;8.330;2023-09-08T14:20:51;8.03;;;6.43;;
3549;SDS011;45572;48.804;8.330;2023-09-08T14:23:18;11.13;;;6.50;;
3549;SDS011;45572;48.804;8.330;2023-09-08T14:25:48;12.10;;;7.40;;
3549;SDS011;45572;48.804;8.330;2023-09-08T14:28:19;10.17;;;7.00;;
3549;SDS011;45572;48.804;8.330;2023-09-08T14:30:48;8.70;;;6.07;;
3549;SDS011;45572;48.804;8.330;2023-09-08T14:33:17;8.90;;;6.83;;
3549;SDS011;45572;48.804;8.330;2023-09-08T14:35:45;9.77;;;6.60;;
3549;SDS011;45572;48.804;8.330;2023-09-08T14:38:18;9.43;;;6.00;;
3549;SDS011;45572;48.804;8.330;2023-09-08T14:51:25;6.80;;;6.00;;
3549;SDS011;45572;48.804;8.330;2023-09-08T14:53:53;10.53;;;6.50;;
3549;SDS011;45572;48.804;8.330;2023-09-08T14:56:21;6.57;;;5.87;;
3549;SDS011;45572;48.804;8.330;2023-09-08T14:58:48;8.50;;;6.97;;
3549;SDS011;45572;48.804;8.330;2023-09-08T15:01:17;7.17;;;6.40;;
3549;SDS011;45572;48.804;8.330;2023-09-08T15:03:45;8.40;;;7.30;;
3549;SDS011;45572;48.804;8.330;2023-09-08T15:06:13;10.20;;;6.87;;
3549;SDS011;45572;48.804;8.330;2023-09-08T15:08:42;7.60;;;6.70;;
3549;SDS011;45572;48.804;8.330;2023-09-08T15:11:18;9.40;;;5.97;;
3549;SDS011;45572;48.804;8.330;2023-09-08T15:13:46;6.90;;;6.00;;
3549;SDS011;45572;48.804;8.330;2023-09-08T15:16:14;8.10;;;7.10;;
3549;SDS011;45572;48.804;8.330;2023-09-08T15:18:42;7.77;;;6.40;;
3549;SDS011;45572;48.804;8.330;2023-09-08T15:21:10;6.67;;;6.00;;